Goya, Argentina
Current Conditions -  °F | °C
As of 1:00 AM on Wednesday 26 Nov 2014 (Local Time) from SARE Reporting Station
Clear Clear  
Wind Chill: 72°   Ceiling: Unl
Heat Index: 72°   Visibility: 6mi
Dew Point: 72°   Wind: 5mph
Humidity: 100%   Direction: 200°SSW
Pressure: 29.8"   Gusts: NA
Location:  29.13°S, 59.27°W
Report Text: SARE 260400Z 20004KT CAVOK 22/22 Q1009
Loading
Personal Weather Stations






























Interactive Weather Map New forecast layout! Learn more

10-Day Weather Forecast

Advertisements
Track Severe Weather on mobile